ePrivacy and GPDR Cookie Consent by Cookie Consent
EmailTwitter


Surface observations / France / LFBO (07630)

Regions: Quebec | Canada | USA | Europe | France | UK | Elsewhere
Station
Display
Info & Location for LFBO (07630) | Help decoding METAR

Weather Conditions observed on 2021/10/25 at 23:30 UTC at TOULOUSE/BLAGNAC, FR (LFBO)

Temperature: 9.0 Celsius.

Dewpoint: 8.0 Celsius.

Relative Humidity: 93%

Winds: South at 7 km/h or 4 knots.

Mean Sea level Pressure: 102.40 kilopascals.

Coded METAR:

LFBO 252330Z AUTO 18004KT CAVOK 09/08 Q1024 BECMG BKN008 OVC030=